KLM451 EDDW-EHAM
Flight info
| Callsign | KLM451 |
|---|---|
| Flight time | 0h 40m |
| Altitude | 24000 |
| Route | OKWEL1M OKWEL N125 BLUFA |
| Aircraft | A20N/M-SDE2E3FGHIRWXY/LB1 |
Departure
| Time | 2026-05-06 19:07 |
|---|---|
| Airport | Bremen Airport (EDDW) |
Arrival
| Time | 2026-05-06 19:47 |
|---|---|
| Airport | Amsterdam Airport Schiphol (EHAM) |
| Time | Latitude | Longitude | Altitude | Speed | Heading |
|---|---|---|---|---|---|
| 2026-05-06 18:42 | 53.05175 | 8.78538 | 25 ft | 0 kts | 49° |
| 2026-05-06 19:01 | 53.05171 | 8.78530 | 22 ft | 4 kts | 49° |
| 2026-05-06 19:01 | 53.05153 | 8.78497 | 23 ft | 4 kts | 43° |
| 2026-05-06 19:01 | 53.05132 | 8.78470 | 27 ft | 4 kts | 26° |
| 2026-05-06 19:01 | 53.05110 | 8.78462 | 25 ft | 3 kts | 323° |
| 2026-05-06 19:02 | 53.05106 | 8.78465 | 25 ft | 1 kts | 317° |
| 2026-05-06 19:04 | 53.05111 | 8.78458 | 26 ft | 3 kts | 316° |
| 2026-05-06 19:04 | 53.05137 | 8.78409 | 22 ft | 9 kts | 307° |
| 2026-05-06 19:04 | 53.05177 | 8.78275 | 24 ft | 17 kts | 289° |
| 2026-05-06 19:05 | 53.05183 | 8.78065 | 22 ft | 20 kts | 250° |
| 2026-05-06 19:05 | 53.05098 | 8.77855 | 22 ft | 24 kts | 228° |
| 2026-05-06 19:05 | 53.04977 | 8.77639 | 22 ft | 27 kts | 227° |
| 2026-05-06 19:05 | 53.04831 | 8.77472 | 22 ft | 8 kts | 195° |
| 2026-05-06 19:06 | 53.04793 | 8.77459 | 23 ft | 8 kts | 189° |
| 2026-05-06 19:06 | 53.04716 | 8.77451 | 24 ft | 14 kts | 165° |
| 2026-05-06 19:06 | 53.04662 | 8.77587 | 23 ft | 16 kts | 93° |
| 2026-05-06 19:06 | 53.04663 | 8.77640 | 25 ft | 0 kts | 86° |
| 2026-05-06 19:07 | 53.04677 | 8.78087 | 22 ft | 78 kts | 87° |
| 2026-05-06 19:07 | 53.04708 | 8.79339 | 24 ft | 138 kts | 86° |
| 2026-05-06 19:07 | 53.04752 | 8.81077 | 396 ft | 153 kts | 84° |
| 2026-05-06 19:07 | 53.04813 | 8.82879 | 1048 ft | 160 kts | 84° |
| 2026-05-06 19:08 | 53.04867 | 8.84768 | 1688 ft | 169 kts | 84° |
| 2026-05-06 19:08 | 53.04905 | 8.86804 | 2146 ft | 186 kts | 86° |
| 2026-05-06 19:08 | 53.04929 | 8.89106 | 2564 ft | 211 kts | 86° |
| 2026-05-06 19:08 | 53.04962 | 8.91673 | 3162 ft | 234 kts | 86° |
| 2026-05-06 19:09 | 53.05106 | 8.94460 | 3957 ft | 247 kts | 73° |
| 2026-05-06 19:09 | 53.05914 | 8.96962 | 5164 ft | 249 kts | 49° |
| 2026-05-06 19:09 | 53.07343 | 8.98641 | 6267 ft | 260 kts | 22° |
| 2026-05-06 19:09 | 53.09145 | 8.99220 | 7321 ft | 267 kts | 8° |
| 2026-05-06 19:10 | 53.10973 | 8.99542 | 8462 ft | 270 kts | 5° |
| 2026-05-06 19:10 | 53.12865 | 8.99433 | 9593 ft | 275 kts | 352° |
| 2026-05-06 19:10 | 53.14738 | 8.98638 | 10547 ft | 286 kts | 342° |
| 2026-05-06 19:10 | 53.16695 | 8.97527 | 11046 ft | 310 kts | 342° |
| 2026-05-06 19:11 | 53.18812 | 8.96332 | 11548 ft | 331 kts | 342° |
| 2026-05-06 19:11 | 53.21013 | 8.95100 | 12485 ft | 336 kts | 342° |
| 2026-05-06 19:11 | 53.23254 | 8.93846 | 13387 ft | 343 kts | 340° |
| 2026-05-06 19:11 | 53.25351 | 8.91942 | 14317 ft | 348 kts | 322° |
| 2026-05-06 19:12 | 53.26959 | 8.88897 | 15117 ft | 354 kts | 301° |
| 2026-05-06 19:12 | 53.27830 | 8.85102 | 15985 ft | 358 kts | 281° |
| 2026-05-06 19:12 | 53.27916 | 8.80949 | 16917 ft | 360 kts | 266° |
| 2026-05-06 19:12 | 53.27728 | 8.76756 | 17730 ft | 366 kts | 265° |
| 2026-05-06 19:13 | 53.27508 | 8.72493 | 18531 ft | 369 kts | 265° |
| 2026-05-06 19:13 | 53.27019 | 8.68284 | 19276 ft | 373 kts | 250° |
| 2026-05-06 19:13 | 53.25754 | 8.64491 | 19998 ft | 378 kts | 234° |
| 2026-05-06 19:13 | 53.24160 | 8.60976 | 20724 ft | 381 kts | 233° |
| 2026-05-06 19:14 | 53.22542 | 8.57436 | 21446 ft | 385 kts | 233° |
| 2026-05-06 19:14 | 53.20910 | 8.53869 | 22162 ft | 389 kts | 233° |
| 2026-05-06 19:14 | 53.19265 | 8.50264 | 22874 ft | 392 kts | 235° |
| 2026-05-06 19:14 | 53.17959 | 8.46262 | 23468 ft | 396 kts | 248° |
| 2026-05-06 19:15 | 53.17095 | 8.41908 | 23579 ft | 395 kts | 255° |
| 2026-05-06 19:15 | 53.16434 | 8.37459 | 23680 ft | 396 kts | 257° |
| 2026-05-06 19:15 | 53.15818 | 8.32989 | 23778 ft | 396 kts | 257° |
| 2026-05-06 19:15 | 53.15198 | 8.28573 | 23871 ft | 397 kts | 257° |
| 2026-05-06 19:16 | 53.14547 | 8.24107 | 23903 ft | 397 kts | 256° |
| 2026-05-06 19:16 | 53.13876 | 8.19643 | 23900 ft | 397 kts | 256° |
| 2026-05-06 19:16 | 53.13197 | 8.15190 | 23907 ft | 395 kts | 255° |
| 2026-05-06 19:16 | 53.12520 | 8.10778 | 23905 ft | 393 kts | 255° |
| 2026-05-06 19:17 | 53.11837 | 8.06365 | 23901 ft | 394 kts | 255° |
| 2026-05-06 19:17 | 53.11152 | 8.01948 | 23902 ft | 394 kts | 255° |
| 2026-05-06 19:17 | 53.10466 | 7.97536 | 23902 ft | 394 kts | 255° |
| 2026-05-06 19:17 | 53.09778 | 7.93126 | 23906 ft | 394 kts | 255° |
| 2026-05-06 19:18 | 53.09088 | 7.88710 | 23909 ft | 394 kts | 255° |
| 2026-05-06 19:18 | 53.08399 | 7.84307 | 23907 ft | 394 kts | 255° |
| 2026-05-06 19:18 | 53.07705 | 7.79892 | 23906 ft | 394 kts | 255° |
| 2026-05-06 19:18 | 53.07011 | 7.75485 | 23905 ft | 394 kts | 255° |
| 2026-05-06 19:19 | 53.06316 | 7.71080 | 23907 ft | 394 kts | 255° |
| 2026-05-06 19:19 | 53.05628 | 7.66737 | 23905 ft | 394 kts | 255° |
| 2026-05-06 19:19 | 53.04930 | 7.62335 | 23910 ft | 393 kts | 255° |
| 2026-05-06 19:19 | 53.04238 | 7.57988 | 23905 ft | 387 kts | 255° |
| 2026-05-06 19:20 | 53.03546 | 7.53655 | 23910 ft | 389 kts | 255° |
| 2026-05-06 19:20 | 53.02850 | 7.49303 | 23913 ft | 389 kts | 255° |
| 2026-05-06 19:20 | 53.02154 | 7.44961 | 23913 ft | 389 kts | 255° |
| 2026-05-06 19:20 | 53.01454 | 7.40609 | 23909 ft | 391 kts | 255° |
| 2026-05-06 19:21 | 53.00750 | 7.36246 | 23912 ft | 392 kts | 255° |
| 2026-05-06 19:21 | 53.00045 | 7.31883 | 23916 ft | 391 kts | 255° |
| 2026-05-06 19:21 | 52.99338 | 7.27522 | 23916 ft | 391 kts | 255° |
| 2026-05-06 19:21 | 52.98630 | 7.23161 | 23916 ft | 391 kts | 255° |
| 2026-05-06 19:22 | 52.97929 | 7.18862 | 23917 ft | 391 kts | 255° |
| 2026-05-06 19:22 | 52.97218 | 7.14507 | 23913 ft | 391 kts | 255° |
| 2026-05-06 19:22 | 52.96505 | 7.10152 | 23928 ft | 391 kts | 255° |
| 2026-05-06 19:22 | 52.95789 | 7.05793 | 23921 ft | 392 kts | 254° |
| 2026-05-06 19:23 | 52.95072 | 7.01433 | 23925 ft | 392 kts | 254° |
| 2026-05-06 19:23 | 52.94353 | 6.97076 | 23923 ft | 392 kts | 254° |
| 2026-05-06 19:23 | 52.93632 | 6.92716 | 23925 ft | 392 kts | 254° |
| 2026-05-06 19:23 | 52.92910 | 6.88359 | 23930 ft | 392 kts | 254° |
| 2026-05-06 19:24 | 52.92186 | 6.84008 | 23930 ft | 392 kts | 254° |
| 2026-05-06 19:24 | 52.91461 | 6.79654 | 23930 ft | 392 kts | 254° |
| 2026-05-06 19:24 | 52.90733 | 6.75303 | 23930 ft | 392 kts | 254° |
| 2026-05-06 19:24 | 52.90005 | 6.70953 | 23931 ft | 392 kts | 254° |
| 2026-05-06 19:25 | 52.89283 | 6.66659 | 23934 ft | 392 kts | 254° |
| 2026-05-06 19:25 | 52.88552 | 6.62318 | 23933 ft | 392 kts | 254° |
| 2026-05-06 19:25 | 52.87805 | 6.57977 | 23933 ft | 392 kts | 251° |
| 2026-05-06 19:25 | 52.86635 | 6.53941 | 23932 ft | 385 kts | 240° |
| 2026-05-06 19:26 | 52.85301 | 6.50224 | 23929 ft | 366 kts | 239° |
| 2026-05-06 19:26 | 52.84029 | 6.46702 | 23929 ft | 348 kts | 239° |
| 2026-05-06 19:26 | 52.82817 | 6.43350 | 23792 ft | 335 kts | 239° |
| 2026-05-06 19:26 | 52.81620 | 6.40039 | 23224 ft | 336 kts | 239° |
| 2026-05-06 19:27 | 52.80424 | 6.36732 | 22699 ft | 334 kts | 239° |
| 2026-05-06 19:27 | 52.79238 | 6.33452 | 22217 ft | 331 kts | 239° |
| 2026-05-06 19:27 | 52.78077 | 6.30248 | 21764 ft | 328 kts | 239° |
| 2026-05-06 19:27 | 52.76906 | 6.27018 | 21254 ft | 327 kts | 240° |
| 2026-05-06 19:28 | 52.75742 | 6.23809 | 20773 ft | 325 kts | 240° |
| 2026-05-06 19:28 | 52.74582 | 6.20619 | 20343 ft | 322 kts | 240° |
| 2026-05-06 19:28 | 52.73432 | 6.17459 | 19893 ft | 320 kts | 240° |
| 2026-05-06 19:28 | 52.72288 | 6.14320 | 19448 ft | 319 kts | 240° |
| 2026-05-06 19:29 | 52.71148 | 6.11195 | 19002 ft | 317 kts | 240° |
| 2026-05-06 19:29 | 52.70009 | 6.08074 | 18435 ft | 320 kts | 240° |
| 2026-05-06 19:29 | 52.68869 | 6.04958 | 18090 ft | 315 kts | 240° |
| 2026-05-06 19:29 | 52.67744 | 6.01890 | 17666 ft | 311 kts | 240° |
| 2026-05-06 19:30 | 52.66650 | 5.98907 | 17249 ft | 307 kts | 240° |
| 2026-05-06 19:30 | 52.65539 | 5.95879 | 16580 ft | 312 kts | 240° |
| 2026-05-06 19:30 | 52.64405 | 5.92791 | 15915 ft | 316 kts | 240° |
| 2026-05-06 19:30 | 52.63273 | 5.89716 | 15471 ft | 314 kts | 240° |
| 2026-05-06 19:31 | 52.62151 | 5.86677 | 15118 ft | 308 kts | 240° |
| 2026-05-06 19:31 | 52.61030 | 5.83638 | 14474 ft | 313 kts | 241° |
| 2026-05-06 19:31 | 52.58772 | 5.77522 | 13413 ft | 314 kts | 241° |
| 2026-05-06 19:32 | 52.57617 | 5.74401 | 12510 ft | 325 kts | 240° |
| 2026-05-06 19:32 | 52.56429 | 5.71191 | 11748 ft | 330 kts | 240° |
| 2026-05-06 19:32 | 52.55248 | 5.68007 | 11416 ft | 336 kts | 240° |
| 2026-05-06 19:32 | 52.54011 | 5.64671 | 11104 ft | 344 kts | 240° |
| 2026-05-06 19:33 | 52.52778 | 5.61364 | 11024 ft | 334 kts | 240° |
| 2026-05-06 19:33 | 52.51595 | 5.58182 | 10867 ft | 317 kts | 242° |
| 2026-05-06 19:33 | 52.50595 | 5.55090 | 10658 ft | 298 kts | 242° |
| 2026-05-06 19:33 | 52.49485 | 5.52049 | 10417 ft | 328 kts | 240° |
| 2026-05-06 19:34 | 52.48269 | 5.48811 | 10291 ft | 333 kts | 240° |
| 2026-05-06 19:34 | 52.47071 | 5.45638 | 10201 ft | 321 kts | 240° |
| 2026-05-06 19:34 | 52.45930 | 5.42602 | 10061 ft | 303 kts | 240° |
| 2026-05-06 19:34 | 52.44854 | 5.39720 | 9693 ft | 292 kts | 240° |
| 2026-05-06 19:35 | 52.43812 | 5.36915 | 9257 ft | 284 kts | 240° |
| 2026-05-06 19:35 | 52.42790 | 5.34160 | 8444 ft | 292 kts | 240° |
| 2026-05-06 19:35 | 52.41712 | 5.31250 | 7385 ft | 306 kts | 239° |
| 2026-05-06 19:35 | 52.40634 | 5.28355 | 7187 ft | 291 kts | 239° |
| 2026-05-06 19:36 | 52.39591 | 5.25560 | 6774 ft | 285 kts | 239° |
| 2026-05-06 19:36 | 52.38563 | 5.22802 | 6166 ft | 283 kts | 239° |
| 2026-05-06 19:36 | 52.37537 | 5.20058 | 5511 ft | 282 kts | 239° |
| 2026-05-06 19:36 | 52.36517 | 5.17332 | 4987 ft | 278 kts | 239° |
| 2026-05-06 19:37 | 52.35523 | 5.14680 | 4734 ft | 271 kts | 239° |
| 2026-05-06 19:37 | 52.34508 | 5.11971 | 4665 ft | 282 kts | 239° |
| 2026-05-06 19:37 | 52.33494 | 5.09270 | 4544 ft | 275 kts | 238° |
| 2026-05-06 19:37 | 52.32811 | 5.07539 | 4461 ft | 272 kts | 237° |
| 2026-05-06 19:38 | 52.31419 | 5.04057 | 4459 ft | 282 kts | 237° |
| 2026-05-06 19:38 | 52.30353 | 5.01389 | 4409 ft | 278 kts | 237° |
| 2026-05-06 19:38 | 52.29313 | 4.98791 | 4306 ft | 268 kts | 237° |
| 2026-05-06 19:38 | 52.28299 | 4.96266 | 4009 ft | 265 kts | 237° |
| 2026-05-06 19:39 | 52.27268 | 4.93703 | 3566 ft | 273 kts | 237° |
| 2026-05-06 19:39 | 52.26221 | 4.91092 | 3094 ft | 276 kts | 237° |
| 2026-05-06 19:39 | 52.25169 | 4.88461 | 2616 ft | 277 kts | 237° |
| 2026-05-06 19:39 | 52.24122 | 4.85819 | 2260 ft | 275 kts | 237° |
| 2026-05-06 19:40 | 52.23109 | 4.83298 | 2141 ft | 264 kts | 237° |
| 2026-05-06 19:40 | 52.22104 | 4.80824 | 2033 ft | 253 kts | 237° |
| 2026-05-06 19:40 | 52.21173 | 4.78516 | 1997 ft | 240 kts | 237° |
| 2026-05-06 19:40 | 52.20252 | 4.76231 | 1998 ft | 245 kts | 237° |
| 2026-05-06 19:41 | 52.19322 | 4.73916 | 1998 ft | 243 kts | 237° |
| 2026-05-06 19:41 | 52.18399 | 4.71621 | 1999 ft | 241 kts | 237° |
| 2026-05-06 19:41 | 52.17480 | 4.69355 | 1995 ft | 239 kts | 237° |
| 2026-05-06 19:41 | 52.16557 | 4.67099 | 1978 ft | 240 kts | 237° |
| 2026-05-06 19:42 | 52.15634 | 4.64821 | 1977 ft | 240 kts | 238° |
| 2026-05-06 19:42 | 52.15065 | 4.62305 | 1978 ft | 237 kts | 269° |
| 2026-05-06 19:42 | 52.15362 | 4.59741 | 1980 ft | 230 kts | 302° |
| 2026-05-06 19:42 | 52.16410 | 4.57892 | 1983 ft | 221 kts | 330° |
| 2026-05-06 19:43 | 52.17717 | 4.56578 | 1978 ft | 220 kts | 336° |
| 2026-05-06 19:43 | 52.19154 | 4.55930 | 1978 ft | 213 kts | 5° |
| 2026-05-06 19:43 | 52.20521 | 4.56647 | 1982 ft | 207 kts | 31° |
| 2026-05-06 19:43 | 52.21737 | 4.57820 | 1977 ft | 204 kts | 32° |
| 2026-05-06 19:44 | 52.22860 | 4.59071 | 1999 ft | 181 kts | 41° |
| 2026-05-06 19:44 | 52.23645 | 4.60414 | 1921 ft | 151 kts | 50° |
| 2026-05-06 19:44 | 52.24240 | 4.61718 | 1734 ft | 136 kts | 55° |
| 2026-05-06 19:44 | 52.24743 | 4.62955 | 1547 ft | 125 kts | 56° |
| 2026-05-06 19:45 | 52.25204 | 4.64115 | 1388 ft | 122 kts | 56° |
| 2026-05-06 19:45 | 52.25652 | 4.65272 | 1221 ft | 121 kts | 56° |
| 2026-05-06 19:45 | 52.26106 | 4.66450 | 1064 ft | 124 kts | 56° |
| 2026-05-06 19:45 | 52.26569 | 4.67647 | 919 ft | 125 kts | 55° |
| 2026-05-06 19:46 | 52.27029 | 4.68843 | 781 ft | 127 kts | 56° |
| 2026-05-06 19:46 | 52.27502 | 4.70075 | 607 ft | 130 kts | 55° |
| 2026-05-06 19:46 | 52.27998 | 4.71352 | 375 ft | 135 kts | 55° |
| 2026-05-06 19:46 | 52.28498 | 4.72672 | 202 ft | 140 kts | 54° |
| 2026-05-06 19:47 | 52.29015 | 4.73997 | 30 ft | 136 kts | 54° |
| 2026-05-06 19:47 | 52.29471 | 4.75145 | -3 ft | 95 kts | 59° |
| 2026-05-06 19:47 | 52.29743 | 4.75764 | -2 ft | 50 kts | 31° |
| 2026-05-06 19:47 | 52.29913 | 4.75916 | -2 ft | 19 kts | 27° |
| 2026-05-06 19:48 | 52.29998 | 4.75997 | -1 ft | 13 kts | 46° |
| 2026-05-06 19:48 | 52.30056 | 4.76147 | -1 ft | 19 kts | 58° |
| 2026-05-06 19:48 | 52.30133 | 4.76347 | -1 ft | 23 kts | 57° |
| 2026-05-06 19:48 | 52.30222 | 4.76579 | -1 ft | 26 kts | 59° |
| 2026-05-06 19:49 | 52.30311 | 4.76816 | -1 ft | 25 kts | 57° |
| 2026-05-06 19:49 | 52.30409 | 4.77041 | -2 ft | 14 kts | 24° |
| 2026-05-06 19:49 | 52.30492 | 4.76984 | -1 ft | 15 kts | 330° |
| 2026-05-06 19:49 | 52.30587 | 4.76884 | -1 ft | 16 kts | 310° |
| 2026-05-06 19:50 | 52.30647 | 4.76763 | -1 ft | 1 kts | 322° |
| 2026-05-06 19:50 | 52.30655 | 4.76728 | -1 ft | 7 kts | 269° |
| 2026-05-06 19:50 | 52.30631 | 4.76647 | -1 ft | 5 kts | 238° |
| 2026-05-06 19:50 | 52.30622 | 4.76625 | -1 ft | 3 kts | 237° |
| 2026-05-06 19:51 | 52.30621 | 4.76623 | -1 ft | 0 kts | 237° |